Overview Statistics Trail Chart Weather Telemetry Raw packets
 

This is the latest recevied weather packets stored in our database for station/object TA2LKM-11. If no packets are shown the sender has not sent any weather packets the latest 10 day(s).

<< 6 7 8 9 10 11 12 >>
Time Temp. Humidity Pressure Rain* Wind** Luminosity Snow
1788527231 32.22° C 34% 1012 hPa - - - -
1788526331 31.67° C 35% 1011.9 hPa - - - -
1788525430 32.22° C 37% 1012.1 hPa - - - -
1788524438 32.22° C 35% 1012.3 hPa - - - -
1788523538 31.67° C 35% 1012.2 hPa - - - -
1788522637 31.67° C 36% 1012.4 hPa - - - -
1788522376 0° C 100% 0.6 hPa - - - -
1788522263 31.67° C 36% 1012.5 hPa - - - -
1788521362 32.22° C 36% 1012.6 hPa - - - -
1788520461 32.22° C 36% 1012.6 hPa - - - -
1788517791 31.67° C 38% 1012.9 hPa - - - -
1788516890 31.67° C 39% 1013 hPa - - - -
1788515954 30.56° C 40% 1013.2 hPa - - - -
1788515861 30.56° C 40% 1013.3 hPa - - - -
1788514960 31.11° C 41% 1013.2 hPa - - - -
1788513968 31.11° C 39% 1013.2 hPa - - - -
1788513879 31.11° C 39% 1013.3 hPa - - - -
1788512979 31.11° C 39% 1013.4 hPa - - - -
1788512078 31.11° C 41% 1013.5 hPa - - - -
1788511177 31.11° C 41% 1013.7 hPa - - - -
1788510276 31.11° C 41% 1013.6 hPa - - - -
1788509012 30.56° C 42% 1013.7 hPa - - - -
1788508112 30.56° C 44% 1013.7 hPa - - - -
1788507211 30.56° C 44% 1013.6 hPa - - - -
1788506310 30° C 44% 1013.6 hPa - - - -

* Rain since midnight (hover to see other rain measurements)
** Current wind speed in m/s (hover to see current wind gust speed)